createdAt,value
2023-02-01T00:00:13.433Z,101202.56
2023-02-01T00:05:16.579Z,101196.47
2023-02-01T00:10:19.549Z,101199.72
2023-02-01T00:15:24.316Z,101181.16
2023-02-01T00:20:27.196Z,101184.63
2023-02-01T00:25:30.304Z,101185.19
2023-02-01T00:30:33.295Z,101154.91
2023-02-01T00:35:37.442Z,101157.34
2023-02-01T00:40:40.287Z,101169.44
2023-02-01T00:45:43.306Z,101162.13
2023-02-01T00:50:46.590Z,101166.16
2023-02-01T00:55:51.315Z,101172.75
2023-02-01T01:01:09.917Z,101171.09
2023-02-01T01:11:34.766Z,101122.38
2023-02-01T01:16:38.040Z,101151.28
2023-02-01T01:21:41.277Z,101163.28
2023-02-01T01:26:44.157Z,101173.16
2023-02-01T01:31:47.124Z,101149.88
2023-02-01T01:36:50.142Z,101138.63
2023-02-01T01:41:53.065Z,101146.16
2023-02-01T01:47:00.650Z,101148.22
2023-02-01T01:52:05.024Z,101155.34
2023-02-01T01:57:18.184Z,101135.97
2023-02-01T02:02:21.114Z,101122.66
2023-02-01T02:07:32.311Z,101157.53
2023-02-01T02:12:35.273Z,101139.84
2023-02-01T02:18:10.847Z,101156.88
2023-02-01T02:23:38.819Z,101163.59
2023-02-01T02:29:19.122Z,101155.22
2023-02-01T02:34:27.493Z,101148.84
2023-02-01T02:39:51.872Z,101114.97
2023-02-01T02:45:24.774Z,101150.59
2023-02-01T02:50:53.719Z,101149.25
2023-02-01T02:56:17.466Z,101139.25
2023-02-01T03:01:39.395Z,101120.53
2023-02-01T03:06:42.756Z,101164.72
2023-02-01T03:12:07.188Z,101150.88
2023-02-01T03:17:20.521Z,101143.66
2023-02-01T03:22:28.085Z,101144.00
2023-02-01T03:27:44.336Z,101169.88
2023-02-01T03:33:02.490Z,101172.16
2023-02-01T03:38:24.178Z,101184.13
2023-02-01T03:43:32.194Z,101168.03
2023-02-01T03:48:37.255Z,101164.91
2023-02-01T03:53:42.927Z,101176.53
2023-02-01T03:59:00.350Z,101176.38
2023-02-01T04:04:10.724Z,101180.63
2023-02-01T04:09:15.922Z,101186.16
2023-02-01T04:14:19.166Z,101175.69
2023-02-01T04:19:21.986Z,101189.63
2023-02-01T04:24:25.117Z,101179.53
2023-02-01T04:29:28.098Z,101192.75
2023-02-01T04:34:31.336Z,101190.31
2023-02-01T04:39:34.658Z,101186.25
2023-02-01T04:44:40.817Z,101206.56
2023-02-01T04:49:43.917Z,101200.94
2023-02-01T04:54:46.739Z,101201.56
2023-02-01T04:59:49.790Z,101189.00
2023-02-01T05:04:52.804Z,101226.94
2023-02-01T05:09:55.864Z,101216.84
2023-02-01T05:14:58.933Z,101200.31
2023-02-01T05:20:01.893Z,101222.28
2023-02-01T05:25:08.293Z,101211.16
2023-02-01T05:30:12.430Z,101216.84
2023-02-01T05:35:15.482Z,101240.47
2023-02-01T05:40:18.919Z,101251.91
2023-02-01T05:45:22.211Z,101248.66
2023-02-01T05:50:25.425Z,101244.75
2023-02-01T05:55:34.143Z,101247.63
2023-02-01T06:00:37.076Z,101272.09
2023-02-01T06:05:40.184Z,101271.38
2023-02-01T06:10:43.370Z,101271.88
2023-02-01T06:15:47.000Z,101268.72
2023-02-01T06:21:01.394Z,101270.22
2023-02-01T06:26:08.872Z,101280.81
2023-02-01T06:31:12.152Z,101292.78
2023-02-01T06:36:16.691Z,101290.81
2023-02-01T06:41:21.831Z,101280.75
2023-02-01T06:46:24.476Z,101295.59
2023-02-01T06:51:29.643Z,101290.47
2023-02-01T06:56:32.819Z,101266.38
2023-02-01T07:01:36.087Z,101293.22
2023-02-01T07:06:40.133Z,101257.38
2023-02-01T07:11:44.618Z,101291.06
2023-02-01T07:16:47.980Z,101272.94
2023-02-01T07:21:53.074Z,101280.53
2023-02-01T07:26:56.458Z,101294.06
2023-02-01T07:31:59.737Z,101299.06
2023-02-01T07:37:02.524Z,101285.66
2023-02-01T07:42:05.486Z,101280.19
2023-02-01T07:47:08.449Z,101291.94
2023-02-01T07:52:12.558Z,101290.31
2023-02-01T07:57:21.266Z,101292.72
2023-02-01T08:02:24.569Z,101291.88
2023-02-01T08:07:27.855Z,101276.31
2023-02-01T08:12:31.012Z,101261.09
2023-02-01T08:17:33.947Z,101263.56
2023-02-01T08:22:36.899Z,101266.75
2023-02-01T08:27:40.129Z,101266.75
2023-02-01T08:32:43.178Z,101237.38
2023-02-01T08:37:46.167Z,101253.72
2023-02-01T08:42:52.469Z,101267.03
2023-02-01T08:48:00.768Z,101257.53
2023-02-01T08:53:03.688Z,101252.38
2023-02-01T08:58:06.592Z,101229.44
2023-02-01T09:03:12.435Z,101236.53
2023-02-01T09:08:16.335Z,101245.03
2023-02-01T09:13:19.657Z,101233.34
2023-02-01T09:18:22.547Z,101241.34
2023-02-01T09:23:26.137Z,101223.16
2023-02-01T09:28:29.222Z,101211.47
2023-02-01T09:33:32.692Z,101207.41
2023-02-01T09:38:38.850Z,101173.19
2023-02-01T09:44:00.715Z,101181.44
2023-02-01T09:49:11.151Z,101201.16
2023-02-01T09:54:24.226Z,101195.97
2023-02-01T09:59:37.444Z,101194.50
2023-02-01T10:04:40.660Z,101185.31
2023-02-01T10:10:27.710Z,101185.22
2023-02-01T10:16:08.740Z,101179.44
2023-02-01T10:21:24.519Z,101175.97
2023-02-01T10:26:34.067Z,101186.81
2023-02-01T10:31:39.798Z,101176.31
2023-02-01T10:37:01.059Z,101165.25
2023-02-01T10:42:04.538Z,101163.84
2023-02-01T10:47:09.878Z,101166.81
2023-02-01T10:52:22.925Z,101151.78
2023-02-01T10:57:30.924Z,101163.34
2023-02-01T11:02:37.397Z,101158.44
2023-02-01T11:07:47.600Z,101171.63
2023-02-01T11:12:55.553Z,101158.00
2023-02-01T11:18:16.983Z,101179.41
2023-02-01T11:23:22.933Z,101177.03
2023-02-01T11:28:33.314Z,101158.81
2023-02-01T11:33:39.503Z,101175.22
2023-02-01T11:38:53.870Z,101190.38
2023-02-01T11:44:02.077Z,101148.78
2023-02-01T11:49:26.702Z,101173.56
2023-02-01T11:54:55.814Z,101176.44
2023-02-01T12:00:05.188Z,101173.72
2023-02-01T12:05:37.248Z,101161.44
2023-02-01T12:11:09.818Z,101173.81
2023-02-01T12:16:32.963Z,101156.91
2023-02-01T12:21:38.581Z,101157.06
2023-02-01T12:27:08.802Z,101153.84
2023-02-01T12:32:41.173Z,101156.09
2023-02-01T12:38:04.863Z,101125.78
2023-02-01T12:43:22.852Z,101150.16
2023-02-01T12:48:33.803Z,101153.13
2023-02-01T12:53:46.934Z,101158.38
2023-02-01T12:58:55.914Z,101151.81
2023-02-01T13:04:18.617Z,101128.06
2023-02-01T13:09:21.434Z,101146.97
2023-02-01T13:14:33.164Z,101154.09
2023-02-01T13:20:24.409Z,101161.69
2023-02-01T13:26:02.587Z,101155.41
2023-02-01T13:31:20.369Z,101180.88
2023-02-01T13:36:37.103Z,101177.78
2023-02-01T13:41:53.301Z,101178.94
2023-02-01T13:47:00.185Z,101162.31
2023-02-01T13:52:03.687Z,101162.38
2023-02-01T13:57:28.425Z,101179.84
2023-02-01T14:02:41.535Z,101156.94
2023-02-01T14:08:06.080Z,101169.53
2023-02-01T14:13:31.006Z,101186.97
2023-02-01T14:18:38.454Z,101188.63
2023-02-01T14:23:44.435Z,101179.44
2023-02-01T14:29:12.776Z,101195.75
2023-02-01T14:34:48.093Z,101189.56
2023-02-01T14:40:01.717Z,101202.78
2023-02-01T14:45:25.706Z,101225.75
2023-02-01T14:50:49.073Z,101229.28
2023-02-01T14:56:14.125Z,101238.13
2023-02-01T15:01:35.232Z,101232.97
2023-02-01T15:06:42.427Z,101242.59
2023-02-01T15:12:01.219Z,101242.34
2023-02-01T15:17:19.518Z,101234.66
2023-02-01T15:22:22.699Z,101247.44
2023-02-01T15:27:27.297Z,101242.34
2023-02-01T15:32:37.823Z,101244.66
2023-02-01T15:37:40.778Z,101221.84
2023-02-01T15:42:55.663Z,101223.88
2023-02-01T15:48:00.412Z,101220.03
2023-02-01T15:53:03.790Z,101225.50
2023-02-01T15:58:08.834Z,101216.00
2023-02-01T16:03:45.860Z,101226.25
2023-02-01T16:09:01.312Z,101192.28
2023-02-01T16:14:04.663Z,101224.53
2023-02-01T16:19:07.878Z,101248.03
2023-02-01T16:24:10.986Z,101250.59
2023-02-01T16:29:13.944Z,101269.75
2023-02-01T16:34:21.261Z,101260.34
2023-02-01T16:39:25.372Z,101254.81
2023-02-01T16:44:28.469Z,101251.56
2023-02-01T16:49:31.395Z,101252.31
2023-02-01T16:54:34.330Z,101259.59
2023-02-01T16:59:37.301Z,101239.19
2023-02-01T17:04:40.902Z,101252.47
2023-02-01T17:09:44.124Z,101264.19
2023-02-01T17:14:47.200Z,101279.09
2023-02-01T17:19:54.491Z,101284.50
2023-02-01T17:24:57.511Z,101272.06
2023-02-01T17:30:01.182Z,101286.03
2023-02-01T17:35:07.464Z,101271.00
2023-02-01T17:40:11.304Z,101281.91
2023-02-01T17:45:38.829Z,101279.91
2023-02-01T17:50:42.281Z,101245.81
2023-02-01T17:55:46.692Z,101257.06
2023-02-01T18:00:50.611Z,101263.03
2023-02-01T18:05:56.002Z,101258.16
2023-02-01T18:11:01.445Z,101249.03
2023-02-01T18:16:04.953Z,101251.16
2023-02-01T18:21:08.125Z,101256.50
2023-02-01T18:26:16.528Z,101262.91
2023-02-01T18:31:30.215Z,101256.63
2023-02-01T18:36:33.311Z,101264.41
2023-02-01T18:41:36.701Z,101272.31
2023-02-01T18:46:39.806Z,101252.34
2023-02-01T18:51:43.813Z,101264.75
2023-02-01T18:56:46.752Z,101252.63
2023-02-01T19:01:49.967Z,101243.59
2023-02-01T19:06:52.923Z,101256.94
2023-02-01T19:11:55.871Z,101260.47
2023-02-01T19:16:58.963Z,101257.50
2023-02-01T19:22:01.653Z,101268.03
2023-02-01T19:27:04.721Z,101252.88
2023-02-01T19:32:07.864Z,101253.88
2023-02-01T19:37:11.065Z,101251.75
2023-02-01T19:42:14.565Z,101254.06
2023-02-01T19:47:17.510Z,101270.75
2023-02-01T19:52:20.581Z,101267.16
2023-02-01T19:57:23.783Z,101273.28
2023-02-01T20:02:28.898Z,101269.06
2023-02-01T20:07:31.907Z,101295.97
2023-02-01T20:12:35.138Z,101274.09
2023-02-01T20:17:38.248Z,101277.41
2023-02-01T20:22:41.217Z,101268.06
2023-02-01T20:27:44.956Z,101285.88
2023-02-01T20:32:52.345Z,101269.03
2023-02-01T20:37:57.401Z,101267.16
2023-02-01T20:43:00.318Z,101278.47
2023-02-01T20:48:03.387Z,101265.44
2023-02-01T20:53:06.822Z,101291.69
2023-02-01T20:58:09.828Z,101259.53
2023-02-01T21:03:13.464Z,101271.47
2023-02-01T21:08:17.055Z,101283.94
2023-02-01T21:13:20.470Z,101283.56
2023-02-01T21:18:24.269Z,101300.53
2023-02-01T21:23:27.176Z,101268.22
2023-02-01T21:28:30.293Z,101305.00
2023-02-01T21:33:33.695Z,101294.00
2023-02-01T21:38:36.752Z,101312.34
2023-02-01T21:43:40.023Z,101309.25
2023-02-01T21:49:05.110Z,101298.59
2023-02-01T21:54:11.621Z,101313.47
2023-02-01T21:59:14.538Z,101296.59
2023-02-01T22:04:18.163Z,101298.28
2023-02-01T22:09:26.331Z,101306.81
2023-02-01T22:14:29.268Z,101317.78
2023-02-01T22:19:32.268Z,101310.00
2023-02-01T22:24:36.332Z,101282.03
2023-02-01T22:29:39.289Z,101312.03
2023-02-01T22:34:42.913Z,101309.13
2023-02-01T22:39:46.470Z,101301.16
2023-02-01T22:44:49.507Z,101301.06
2023-02-01T22:49:52.553Z,101309.72
2023-02-01T22:54:55.514Z,101308.13
2023-02-01T22:59:58.547Z,101309.03
2023-02-01T23:05:01.512Z,101311.31
2023-02-01T23:10:06.382Z,101314.47
2023-02-01T23:15:09.978Z,101311.06
2023-02-01T23:20:16.165Z,101301.91
2023-02-01T23:25:19.593Z,101302.94
2023-02-01T23:30:22.648Z,101293.13
2023-02-01T23:35:25.921Z,101313.50
2023-02-01T23:40:29.147Z,101289.16
2023-02-01T23:45:32.212Z,101296.56
2023-02-01T23:50:35.134Z,101289.97
2023-02-01T23:55:38.141Z,101251.13
